sensor_id;sensor_type;location;lat;lon;timestamp;pressure;altitude;pressure_sealevel;temperature;humidity
73341;BME280;61578;52.002;5.468;2022-07-24T00:00:15;101839.63;;;17.67;75.13
73341;BME280;61578;52.002;5.468;2022-07-24T00:01:06;101824.41;;;17.55;75.60
73341;BME280;61578;52.002;5.468;2022-07-24T00:01:57;101836.19;;;17.65;75.63
73341;BME280;61578;52.002;5.468;2022-07-24T00:02:48;101842.31;;;17.67;75.40
73341;BME280;61578;52.002;5.468;2022-07-24T00:03:39;101843.28;;;17.66;75.76
73341;BME280;61578;52.002;5.468;2022-07-24T00:04:30;101843.28;;;17.66;75.65
73341;BME280;61578;52.002;5.468;2022-07-24T00:05:22;101846.94;;;17.65;75.94
73341;BME280;61578;52.002;5.468;2022-07-24T00:06:13;101841.56;;;17.65;75.55
73341;BME280;61578;52.002;5.468;2022-07-24T00:07:03;101844.25;;;17.65;75.65
73341;BME280;61578;52.002;5.468;2022-07-24T00:07:54;101831.28;;;17.59;75.66
73341;BME280;61578;52.002;5.468;2022-07-24T00:08:45;101844.13;;;17.67;75.71
73341;BME280;61578;52.002;5.468;2022-07-24T00:09:36;101835.44;;;17.63;75.70
73341;BME280;61578;52.002;5.468;2022-07-24T00:10:28;101844.38;;;17.63;75.53
73341;BME280;61578;52.002;5.468;2022-07-24T00:11:19;101838.13;;;17.63;75.73
73341;BME280;61578;52.002;5.468;2022-07-24T00:12:10;101833.00;;;17.60;76.20
73341;BME280;61578;52.002;5.468;2022-07-24T00:13:01;101835.44;;;17.63;75.71
73341;BME280;61578;52.002;5.468;2022-07-24T00:13:52;101823.34;;;17.57;75.75
73341;BME280;61578;52.002;5.468;2022-07-24T00:14:43;101832.75;;;17.63;75.94
73341;BME280;61578;52.002;5.468;2022-07-24T00:15:34;101832.84;;;17.61;76.02
73341;BME280;61578;52.002;5.468;2022-07-24T00:16:25;101798.78;;;17.40;75.68
73341;BME280;61578;52.002;5.468;2022-07-24T00:17:16;101829.09;;;17.64;75.90
73341;BME280;61578;52.002;5.468;2022-07-24T00:18:07;101832.75;;;17.63;75.96
73341;BME280;61578;52.002;5.468;2022-07-24T00:18:58;101819.91;;;17.55;76.24
73341;BME280;61578;52.002;5.468;2022-07-24T00:19:49;101821.72;;;17.55;75.77
73341;BME280;61578;52.002;5.468;2022-07-24T00:20:40;101833.63;;;17.63;76.65
73341;BME280;61578;52.002;5.468;2022-07-24T00:21:32;101815.50;;;17.54;75.75
73341;BME280;61578;52.002;5.468;2022-07-24T00:22:23;101832.75;;;17.63;76.26
73341;BME280;61578;52.002;5.468;2022-07-24T00:23:14;101789.88;;;17.39;76.40
73341;BME280;61578;52.002;5.468;2022-07-24T00:24:05;101836.66;;;17.59;75.72
73341;BME280;61578;52.002;5.468;2022-07-24T00:24:56;101839.22;;;17.60;75.92
73341;BME280;61578;52.002;5.468;2022-07-24T00:25:47;101832.59;;;17.53;76.06
73341;BME280;61578;52.002;5.468;2022-07-24T00:26:39;101827.22;;;17.53;76.10
73341;BME280;61578;52.002;5.468;2022-07-24T00:27:30;101836.75;;;17.57;76.14
73341;BME280;61578;52.002;5.468;2022-07-24T00:28:21;101833.69;;;17.51;76.35
73341;BME280;61578;52.002;5.468;2022-07-24T00:29:12;101835.91;;;17.57;76.35
73341;BME280;61578;52.002;5.468;2022-07-24T00:30:03;101838.69;;;17.55;76.66
73341;BME280;61578;52.002;5.468;2022-07-24T00:30:54;101828.31;;;17.51;76.19
73341;BME280;61578;52.002;5.468;2022-07-24T00:31:45;101832.00;;;17.50;76.34
73341;BME280;61578;52.002;5.468;2022-07-24T00:32:37;101836.03;;;17.55;76.34
73341;BME280;61578;52.002;5.468;2022-07-24T00:33:28;101816.34;;;17.44;76.64
73341;BME280;61578;52.002;5.468;2022-07-24T00:34:18;101823.31;;;17.46;76.71
73341;BME280;61578;52.002;5.468;2022-07-24T00:35:10;101835.91;;;17.57;76.53
73341;BME280;61578;52.002;5.468;2022-07-24T00:36:03;101807.91;;;17.37;76.14
73341;BME280;61578;52.002;5.468;2022-07-24T00:36:54;101830.88;;;17.52;76.65
73341;BME280;61578;52.002;5.468;2022-07-24T00:37:45;101837.63;;;17.58;76.77
73341;BME280;61578;52.002;5.468;2022-07-24T00:38:39;101837.84;;;17.55;76.37
73341;BME280;61578;52.002;5.468;2022-07-24T00:39:30;101815.38;;;17.45;76.90
73341;BME280;61578;52.002;5.468;2022-07-24T00:40:21;101833.44;;;17.54;76.96
73341;BME280;61578;52.002;5.468;2022-07-24T00:41:13;101833.22;;;17.57;76.92
73341;BME280;61578;52.002;5.468;2022-07-24T00:42:04;101840.53;;;17.55;76.94
73341;BME280;61578;52.002;5.468;2022-07-24T00:42:56;101830.03;;;17.52;76.79
73341;BME280;61578;52.002;5.468;2022-07-24T00:44:07;101827.34;;;17.52;76.85
73341;BME280;61578;52.002;5.468;2022-07-24T00:45:00;101813.63;;;17.33;76.39
73341;BME280;61578;52.002;5.468;2022-07-24T00:45:51;101816.94;;;17.36;77.08
73341;BME280;61578;52.002;5.468;2022-07-24T00:46:44;101809.75;;;17.37;76.65
73341;BME280;61578;52.002;5.468;2022-07-24T00:47:36;101824.50;;;17.42;77.03
73341;BME280;61578;52.002;5.468;2022-07-24T00:48:27;101828.56;;;17.48;76.85
73341;BME280;61578;52.002;5.468;2022-07-24T00:49:20;101833.31;;;17.44;77.25
73341;BME280;61578;52.002;5.468;2022-07-24T00:50:11;101828.78;;;17.45;76.98
73341;BME280;61578;52.002;5.468;2022-07-24T00:51:02;101834.28;;;17.43;77.08
73341;BME280;61578;52.002;5.468;2022-07-24T00:51:53;101807.75;;;17.27;77.44
73341;BME280;61578;52.002;5.468;2022-07-24T00:52:45;101809.59;;;17.27;77.16
73341;BME280;61578;52.002;5.468;2022-07-24T00:53:36;101829.88;;;17.42;77.29
73341;BME280;61578;52.002;5.468;2022-07-24T00:54:27;101835.88;;;17.46;77.07
73341;BME280;61578;52.002;5.468;2022-07-24T00:55:20;101827.81;;;17.46;77.04
73341;BME280;61578;52.002;5.468;2022-07-24T00:56:13;101829.66;;;17.45;77.03
73341;BME280;61578;52.002;5.468;2022-07-24T00:57:05;101830.50;;;17.46;77.29
73341;BME280;61578;52.002;5.468;2022-07-24T00:57:56;101828.78;;;17.45;77.03
73341;BME280;61578;52.002;5.468;2022-07-24T00:58:48;101806.44;;;17.33;77.11
73341;BME280;61578;52.002;5.468;2022-07-24T00:59:39;101824.13;;;17.36;77.09
73341;BME280;61578;52.002;5.468;2022-07-24T01:00:30;101814.25;;;17.36;77.22
73341;BME280;61578;52.002;5.468;2022-07-24T01:01:21;101830.72;;;17.43;77.74
73341;BME280;61578;52.002;5.468;2022-07-24T01:02:12;101832.56;;;17.42;77.42
73341;BME280;61578;52.002;5.468;2022-07-24T01:03:03;101820.25;;;17.40;77.40
73341;BME280;61578;52.002;5.468;2022-07-24T01:03:54;101808.84;;;17.25;77.60
73341;BME280;61578;52.002;5.468;2022-07-24T01:04:47;101830.84;;;17.41;77.85
73341;BME280;61578;52.002;5.468;2022-07-24T01:05:39;101828.06;;;17.43;77.82
73341;BME280;61578;52.002;5.468;2022-07-24T01:06:30;101818.75;;;17.36;77.74
73341;BME280;61578;52.002;5.468;2022-07-24T01:07:21;101827.31;;;17.41;77.32
73341;BME280;61578;52.002;5.468;2022-07-24T01:08:12;101814.00;;;17.28;77.31
73341;BME280;61578;52.002;5.468;2022-07-24T01:09:04;101832.81;;;17.39;77.78
73341;BME280;61578;52.002;5.468;2022-07-24T01:09:55;101832.06;;;17.37;77.75
73341;BME280;61578;52.002;5.468;2022-07-24T01:10:46;101831.00;;;17.40;77.63
73341;BME280;61578;52.002;5.468;2022-07-24T01:11:40;101807.75;;;17.27;77.57
73341;BME280;61578;52.002;5.468;2022-07-24T01:12:35;101809.09;;;17.33;77.87
73341;BME280;61578;52.002;5.468;2022-07-24T01:13:29;101818.28;;;17.42;77.76
73341;BME280;61578;52.002;5.468;2022-07-24T01:14:22;101825.38;;;17.43;77.38
73341;BME280;61578;52.002;5.468;2022-07-24T01:15:13;101824.63;;;17.41;77.65
73341;BME280;61578;52.002;5.468;2022-07-24T01:16:04;101810.81;;;17.34;77.85
73341;BME280;61578;52.002;5.468;2022-07-24T01:16:55;101825.72;;;17.38;77.92
73341;BME280;61578;52.002;5.468;2022-07-24T01:17:46;101810.94;;;17.33;77.68
73341;BME280;61578;52.002;5.468;2022-07-24T01:18:37;101820.47;;;17.37;77.52
73341;BME280;61578;52.002;5.468;2022-07-24T01:19:28;101813.63;;;17.33;77.68
73341;BME280;61578;52.002;5.468;2022-07-24T01:20:19;101817.16;;;17.33;77.81
73341;BME280;61578;52.002;5.468;2022-07-24T01:21:10;101797.16;;;17.26;78.46
73341;BME280;61578;52.002;5.468;2022-07-24T01:22:01;101798.22;;;17.23;77.82
73341;BME280;61578;52.002;5.468;2022-07-24T01:22:53;101804.97;;;17.29;78.10
73341;BME280;61578;52.002;5.468;2022-07-24T01:23:44;101820.47;;;17.37;78.08
73341;BME280;61578;52.002;5.468;2022-07-24T01:24:34;101817.78;;;17.37;77.83
73341;BME280;61578;52.002;5.468;2022-07-24T01:25:25;101788.34;;;17.24;77.71
73341;BME280;61578;52.002;5.468;2022-07-24T01:26:17;101790.28;;;17.22;77.43
73341;BME280;61578;52.002;5.468;2022-07-24T01:27:08;101804.81;;;17.30;77.78
73341;BME280;61578;52.002;5.468;2022-07-24T01:27:59;101806.31;;;17.35;78.02
73341;BME280;61578;52.002;5.468;2022-07-24T01:28:50;101802.28;;;17.29;77.57
73341;BME280;61578;52.002;5.468;2022-07-24T01:29:41;101815.22;;;17.35;77.41
73341;BME280;61578;52.002;5.468;2022-07-24T01:30:32;101817.06;;;17.35;77.90
73341;BME280;61578;52.002;5.468;2022-07-24T01:31:23;101812.75;;;17.32;77.42
73341;BME280;61578;52.002;5.468;2022-07-24T01:32:14;101779.06;;;17.17;77.67
73341;BME280;61578;52.002;5.468;2022-07-24T01:33:06;101797.25;;;17.24;77.82
73341;BME280;61578;52.002;5.468;2022-07-24T01:33:57;101809.22;;;17.32;77.96
73341;BME280;61578;52.002;5.468;2022-07-24T01:34:48;101813.63;;;17.33;77.78
73341;BME280;61578;52.002;5.468;2022-07-24T01:35:40;101798.97;;;17.25;77.68
73341;BME280;61578;52.002;5.468;2022-07-24T01:36:32;101811.91;;;17.32;77.78
73341;BME280;61578;52.002;5.468;2022-07-24T01:37:23;101793.09;;;17.20;77.70
73341;BME280;61578;52.002;5.468;2022-07-24T01:38:14;101795.66;;;17.22;77.66
73341;BME280;61578;52.002;5.468;2022-07-24T01:39:05;101805.81;;;17.29;77.73
73341;BME280;61578;52.002;5.468;2022-07-24T01:39:56;101798.34;;;17.22;77.74
73341;BME280;61578;52.002;5.468;2022-07-24T01:40:47;101807.75;;;17.27;77.71
73341;BME280;61578;52.002;5.468;2022-07-24T01:41:38;101803.38;;;17.26;77.84
73341;BME280;61578;52.002;5.468;2022-07-24T01:42:29;101814.00;;;17.28;77.86
73341;BME280;61578;52.002;5.468;2022-07-24T01:43:20;101817.66;;;17.27;77.94
73341;BME280;61578;52.002;5.468;2022-07-24T01:44:11;101800.31;;;17.20;77.51
73341;BME280;61578;52.002;5.468;2022-07-24T01:45:03;101815.81;;;17.27;77.79
73341;BME280;61578;52.002;5.468;2022-07-24T01:45:55;101807.25;;;17.22;77.97
73341;BME280;61578;52.002;5.468;2022-07-24T01:46:46;101808.84;;;17.25;78.20
73341;BME280;61578;52.002;5.468;2022-07-24T01:47:37;101809.19;;;17.20;77.90
73341;BME280;61578;52.002;5.468;2022-07-24T01:48:28;101808.59;;;17.17;77.69
73341;BME280;61578;52.002;5.468;2022-07-24T01:49:19;101805.69;;;17.20;77.74
73341;BME280;61578;52.002;5.468;2022-07-24T01:50:12;101785.47;;;17.03;77.90
73341;BME280;61578;52.002;5.468;2022-07-24T01:51:03;101803.34;;;17.15;78.22
73341;BME280;61578;52.002;5.468;2022-07-24T01:51:54;101798.94;;;17.14;78.50
73341;BME280;61578;52.002;5.468;2022-07-24T01:52:45;101788.44;;;17.11;77.94
73341;BME280;61578;52.002;5.468;2022-07-24T01:53:36;101793.69;;;17.13;78.30
73341;BME280;61578;52.002;5.468;2022-07-24T01:54:27;101803.09;;;17.18;78.19
73341;BME280;61578;52.002;5.468;2022-07-24T01:55:19;101800.44;;;17.18;78.15
73341;BME280;61578;52.002;5.468;2022-07-24T01:56:11;101802.25;;;17.18;77.94
73341;BME280;61578;52.002;5.468;2022-07-24T01:57:02;101801.41;;;17.17;78.12
73341;BME280;61578;52.002;5.468;2022-07-24T01:57:53;101783.31;;;17.08;78.44
73341;BME280;61578;52.002;5.468;2022-07-24T01:58:44;101798.81;;;17.16;78.38
73341;BME280;61578;52.002;5.468;2022-07-24T01:59:35;101783.66;;;17.04;78.58
73341;BME280;61578;52.002;5.468;2022-07-24T02:00:26;101795.50;;;17.12;78.35
73341;BME280;61578;52.002;5.468;2022-07-24T02:01:17;101805.38;;;17.12;78.21
73341;BME280;61578;52.002;5.468;2022-07-24T02:02:08;101771.78;;;16.95;78.64
73341;BME280;61578;52.002;5.468;2022-07-24T02:02:59;101799.16;;;17.11;78.99
73341;BME280;61578;52.002;5.468;2022-07-24T02:03:50;101799.41;;;17.08;78.36
73341;BME280;61578;52.002;5.468;2022-07-24T02:04:41;101793.94;;;17.10;78.50
73341;BME280;61578;52.002;5.468;2022-07-24T02:05:32;101756.63;;;16.83;78.34
73341;BME280;61578;52.002;5.468;2022-07-24T02:06:23;101752.34;;;16.80;78.56
73341;BME280;61578;52.002;5.468;2022-07-24T02:07:14;101806.72;;;17.06;78.69
73341;BME280;61578;52.002;5.468;2022-07-24T02:08:05;101786.94;;;16.96;78.83
73341;BME280;61578;52.002;5.468;2022-07-24T02:08:56;101784.56;;;16.91;78.92
73341;BME280;61578;52.002;5.468;2022-07-24T02:09:47;101799.38;;;16.97;78.59
73341;BME280;61578;52.002;5.468;2022-07-24T02:10:39;101816.22;;;16.99;78.72
73341;BME280;61578;52.002;5.468;2022-07-24T02:11:30;101801.91;;;16.87;79.16
73341;BME280;61578;52.002;5.468;2022-07-24T02:12:21;101796.84;;;16.83;79.23
73341;BME280;61578;52.002;5.468;2022-07-24T02:13:12;101808.38;;;16.96;79.23
73341;BME280;61578;52.002;5.468;2022-07-24T02:14:04;101819.00;;;16.98;79.15
73341;BME280;61578;52.002;5.468;2022-07-24T02:14:55;101799.69;;;16.92;78.65
73341;BME280;61578;52.002;5.468;2022-07-24T02:15:46;101802.00;;;16.86;78.94
73341;BME280;61578;52.002;5.468;2022-07-24T02:16:37;101819.97;;;16.97;78.80
73341;BME280;61578;52.002;5.468;2022-07-24T02:17:31;101797.38;;;16.88;79.19
73341;BME280;61578;52.002;5.468;2022-07-24T02:18:22;101817.06;;;17.00;78.94
73341;BME280;61578;52.002;5.468;2022-07-24T02:19:14;101800.78;;;16.90;79.24
73341;BME280;61578;52.002;5.468;2022-07-24T02:20:05;101824.97;;;17.01;79.01
73341;BME280;61578;52.002;5.468;2022-07-24T02:20:57;101823.25;;;17.00;78.66
73341;BME280;61578;52.002;5.468;2022-07-24T02:21:48;101804.97;;;16.94;78.94
73341;BME280;61578;52.002;5.468;2022-07-24T02:22:39;101812.16;;;16.93;79.00
73341;BME280;61578;52.002;5.468;2022-07-24T02:23:29;101816.22;;;16.99;78.87
73341;BME280;61578;52.002;5.468;2022-07-24T02:24:21;101821.59;;;16.99;78.69
73341;BME280;61578;52.002;5.468;2022-07-24T02:25:13;101819.00;;;16.98;78.82
73341;BME280;61578;52.002;5.468;2022-07-24T02:26:05;101803.94;;;16.84;78.64
73341;BME280;61578;52.002;5.468;2022-07-24T02:26:56;101805.72;;;16.96;79.14
73341;BME280;61578;52.002;5.468;2022-07-24T02:27:47;101801.91;;;16.87;79.20
73341;BME280;61578;52.002;5.468;2022-07-24T02:28:38;101801.09;;;16.98;79.38
73341;BME280;61578;52.002;5.468;2022-07-24T02:29:29;101803.25;;;16.93;79.27
73341;BME280;61578;52.002;5.468;2022-07-24T02:30:22;101812.78;;;16.97;78.75
73341;BME280;61578;52.002;5.468;2022-07-24T02:31:14;101793.97;;;16.86;79.05
73341;BME280;61578;52.002;5.468;2022-07-24T02:32:06;101795.19;;;16.93;78.79
73341;BME280;61578;52.002;5.468;2022-07-24T02:32:57;101801.94;;;16.99;79.00
73341;BME280;61578;52.002;5.468;2022-07-24T02:33:49;101812.66;;;16.99;79.14
73341;BME280;61578;52.002;5.468;2022-07-24T02:34:40;101787.97;;;16.82;78.48
73341;BME280;61578;52.002;5.468;2022-07-24T02:35:31;101778.94;;;16.83;78.69
73341;BME280;61578;52.002;5.468;2022-07-24T02:36:22;101794.69;;;16.88;78.60
73341;BME280;61578;52.002;5.468;2022-07-24T02:37:15;101798.41;;;16.98;79.02
73341;BME280;61578;52.002;5.468;2022-07-24T02:38:07;101802.06;;;16.97;78.45
73341;BME280;61578;52.002;5.468;2022-07-24T02:38:59;101781.41;;;16.86;79.14
73341;BME280;61578;52.002;5.468;2022-07-24T02:39:50;101802.06;;;16.97;78.82
73341;BME280;61578;52.002;5.468;2022-07-24T02:40:42;101794.22;;;16.94;78.64
73341;BME280;61578;52.002;5.468;2022-07-24T02:41:34;101790.56;;;16.95;78.51
73341;BME280;61578;52.002;5.468;2022-07-24T02:42:25;101773.56;;;16.83;78.60
73341;BME280;61578;52.002;5.468;2022-07-24T02:43:16;101775.66;;;16.91;78.75
73341;BME280;61578;52.002;5.468;2022-07-24T02:44:07;101780.31;;;16.89;78.49
73341;BME280;61578;52.002;5.468;2022-07-24T02:44:58;101768.09;;;16.85;78.52
73341;BME280;61578;52.002;5.468;2022-07-24T02:45:49;101786.06;;;16.96;79.11
73341;BME280;61578;52.002;5.468;2022-07-24T02:46:40;101789.59;;;16.96;nan
73341;BME280;61578;52.002;5.468;2022-07-24T02:47:31;101787.03;;;16.95;78.98
73341;BME280;61578;52.002;5.468;2022-07-24T02:48:22;101780.69;;;16.96;78.87
73341;BME280;61578;52.002;5.468;2022-07-24T02:49:13;101785.69;;;16.89;78.83
73341;BME280;61578;52.002;5.468;2022-07-24T02:50:06;101788.88;;;16.94;79.30
73341;BME280;61578;52.002;5.468;2022-07-24T02:50:57;101783.50;;;16.94;79.15
73341;BME280;61578;52.002;5.468;2022-07-24T02:51:48;101788.75;;;16.96;79.00
73341;BME280;61578;52.002;5.468;2022-07-24T02:52:39;101778.25;;;16.92;79.15
73341;BME280;61578;52.002;5.468;2022-07-24T02:53:30;101788.75;;;16.96;79.10
73341;BME280;61578;52.002;5.468;2022-07-24T02:54:21;101779.97;;;16.93;78.73
73341;BME280;61578;52.002;5.468;2022-07-24T02:55:12;101754.53;;;16.75;78.76
73341;BME280;61578;52.002;5.468;2022-07-24T02:56:04;101783.72;;;16.91;78.73
73341;BME280;61578;52.002;5.468;2022-07-24T02:56:56;101781.03;;;16.91;79.04
73341;BME280;61578;52.002;5.468;2022-07-24T02:57:47;101785.81;;;16.87;78.40
73341;BME280;61578;52.002;5.468;2022-07-24T02:58:38;101784.94;;;16.87;78.70
73341;BME280;61578;52.002;5.468;2022-07-24T02:59:29;101763.44;;;16.76;79.38
73341;BME280;61578;52.002;5.468;2022-07-24T03:00:20;101788.59;;;16.86;78.97
73341;BME280;61578;52.002;5.468;2022-07-24T03:01:11;101763.75;;;16.71;78.97
73341;BME280;61578;52.002;5.468;2022-07-24T03:02:02;101781.63;;;16.83;79.27
73341;BME280;61578;52.002;5.468;2022-07-24T03:02:53;101774.75;;;16.79;78.82
73341;BME280;61578;52.002;5.468;2022-07-24T03:03:44;101779.06;;;16.82;nan
73341;BME280;61578;52.002;5.468;2022-07-24T03:04:35;101758.41;;;16.71;78.94
73341;BME280;61578;52.002;5.468;2022-07-24T03:05:29;101783.41;;;16.72;78.72
73341;BME280;61578;52.002;5.468;2022-07-24T03:06:20;101786.06;;;16.72;79.07
73341;BME280;61578;52.002;5.468;2022-07-24T03:07:11;101767.22;;;16.61;79.19
73341;BME280;61578;52.002;5.468;2022-07-24T03:08:02;101778.72;;;16.63;79.25
73341;BME280;61578;52.002;5.468;2022-07-24T03:08:54;101761.25;;;16.57;79.20
73341;BME280;61578;52.002;5.468;2022-07-24T03:09:45;101789.97;;;16.68;78.90
73341;BME280;61578;52.002;5.468;2022-07-24T03:10:36;101769.19;;;16.59;79.39
73341;BME280;61578;52.002;5.468;2022-07-24T03:11:27;101793.09;;;16.62;79.57
73341;BME280;61578;52.002;5.468;2022-07-24T03:12:18;101799.00;;;16.67;79.21
73341;BME280;61578;52.002;5.468;2022-07-24T03:13:09;101792.03;;;16.64;79.40
73341;BME280;61578;52.002;5.468;2022-07-24T03:14:00;101790.50;;;16.60;79.24
73341;BME280;61578;52.002;5.468;2022-07-24T03:14:51;101774.22;;;16.50;79.14
73341;BME280;61578;52.002;5.468;2022-07-24T03:15:42;101796.00;;;16.59;79.33
73341;BME280;61578;52.002;5.468;2022-07-24T03:16:34;101780.34;;;16.52;79.55
73341;BME280;61578;52.002;5.468;2022-07-24T03:17:25;101781.31;;;16.51;79.33
73341;BME280;61578;52.002;5.468;2022-07-24T03:18:16;101781.19;;;16.53;80.00
73341;BME280;61578;52.002;5.468;2022-07-24T03:19:07;101769.84;;;16.49;79.43
73341;BME280;61578;52.002;5.468;2022-07-24T03:19:58;101783.88;;;16.53;79.50
73341;BME280;61578;52.002;5.468;2022-07-24T03:20:49;101787.94;;;16.59;79.58
73341;BME280;61578;52.002;5.468;2022-07-24T03:21:40;101765.81;;;16.44;79.44
73341;BME280;61578;52.002;5.468;2022-07-24T03:22:31;101786.34;;;16.56;79.32
73341;BME280;61578;52.002;5.468;2022-07-24T03:23:22;101784.53;;;16.56;79.49
73341;BME280;61578;52.002;5.468;2022-07-24T03:24:13;101782.81;;;16.55;79.88
73341;BME280;61578;52.002;5.468;2022-07-24T03:25:04;101769.63;;;16.52;79.27
73341;BME280;61578;52.002;5.468;2022-07-24T03:25:55;101782.16;;;16.52;79.68
73341;BME280;61578;52.002;5.468;2022-07-24T03:26:46;101773.03;;;16.54;79.67
73341;BME280;61578;52.002;5.468;2022-07-24T03:27:38;101773.78;;;16.56;79.80
73341;BME280;61578;52.002;5.468;2022-07-24T03:28:29;101776.47;;;16.56;79.70
73341;BME280;61578;52.002;5.468;2022-07-24T03:29:20;101770.25;;;16.56;79.57
73341;BME280;61578;52.002;5.468;2022-07-24T03:30:12;101772.69;;;16.59;79.67
73341;BME280;61578;52.002;5.468;2022-07-24T03:31:03;101765.75;;;16.56;79.83
73341;BME280;61578;52.002;5.468;2022-07-24T03:31:54;101763.06;;;16.56;79.53
73341;BME280;61578;52.002;5.468;2022-07-24T03:32:45;101752.91;;;16.49;79.47
73341;BME280;61578;52.002;5.468;2022-07-24T03:33:36;101771.97;;;16.57;79.19
73341;BME280;61578;52.002;5.468;2022-07-24T03:34:27;101766.28;;;16.49;79.56
73341;BME280;61578;52.002;5.468;2022-07-24T03:35:18;101771.13;;;16.56;79.69
73341;BME280;61578;52.002;5.468;2022-07-24T03:36:09;101756.56;;;16.48;79.66
73341;BME280;61578;52.002;5.468;2022-07-24T03:37:00;101751.31;;;16.46;79.75
73341;BME280;61578;52.002;5.468;2022-07-24T03:37:51;101773.91;;;16.55;79.87
73341;BME280;61578;52.002;5.468;2022-07-24T03:38:42;101767.69;;;16.54;80.04
73341;BME280;61578;52.002;5.468;2022-07-24T03:39:33;101764.16;;;16.54;79.53
73341;BME280;61578;52.002;5.468;2022-07-24T03:40:25;101770.38;;;16.54;79.59
73341;BME280;61578;52.002;5.468;2022-07-24T03:41:16;101761.06;;;16.47;80.26
73341;BME280;61578;52.002;5.468;2022-07-24T03:42:07;101762.44;;;16.53;79.77
73341;BME280;61578;52.002;5.468;2022-07-24T03:42:58;101758.25;;;16.49;79.81
73341;BME280;61578;52.002;5.468;2022-07-24T03:43:49;101761.56;;;16.52;79.53
73341;BME280;61578;52.002;5.468;2022-07-24T03:44:40;101763.41;;;16.52;79.25
73341;BME280;61578;52.002;5.468;2022-07-24T03:45:31;101744.69;;;16.39;79.88
73341;BME280;61578;52.002;5.468;2022-07-24T03:46:23;101758.91;;;16.52;79.65
73341;BME280;61578;52.002;5.468;2022-07-24T03:47:14;101753.03;;;16.47;79.56
73341;BME280;61578;52.002;5.468;2022-07-24T03:48:05;101759.00;;;16.51;79.91
73341;BME280;61578;52.002;5.468;2022-07-24T03:48:57;101752.28;;;16.45;79.86
73341;BME280;61578;52.002;5.468;2022-07-24T03:49:48;101749.50;;;16.47;79.81
73341;BME280;61578;52.002;5.468;2022-07-24T03:50:39;101743.81;;;16.39;79.82
73341;BME280;61578;52.002;5.468;2022-07-24T03:51:31;101742.00;;;16.39;79.95
73341;BME280;61578;52.002;5.468;2022-07-24T03:52:22;101760.81;;;16.50;79.88
73341;BME280;61578;52.002;5.468;2022-07-24T03:53:13;101758.91;;;16.52;80.15
73341;BME280;61578;52.002;5.468;2022-07-24T03:54:04;101761.56;;;16.52;79.57
73341;BME280;61578;52.002;5.468;2022-07-24T03:54:55;101754.09;;;16.45;79.82
73341;BME280;61578;52.002;5.468;2022-07-24T03:55:46;101767.78;;;16.53;79.75
73341;BME280;61578;52.002;5.468;2022-07-24T03:56:37;101757.28;;;16.50;79.82
73341;BME280;61578;52.002;5.468;2022-07-24T03:57:28;101765.34;;;16.50;79.60
73341;BME280;61578;52.002;5.468;2022-07-24T03:58:19;101748.00;;;16.43;80.12
73341;BME280;61578;52.002;5.468;2022-07-24T03:59:10;101750.91;;;16.40;80.31
73341;BME280;61578;52.002;5.468;2022-07-24T04:00:01;101756.94;;;16.31;80.08
73341;BME280;61578;52.002;5.468;2022-07-24T04:00:54;101774.34;;;16.49;79.85
73341;BME280;61578;52.002;5.468;2022-07-24T04:01:45;101773.38;;;16.50;79.52
73341;BME280;61578;52.002;5.468;2022-07-24T04:02:38;101775.19;;;16.49;79.65
73341;BME280;61578;52.002;5.468;2022-07-24T04:03:30;101772.66;;;16.48;79.89
73341;BME280;61578;52.002;5.468;2022-07-24T04:04:21;101764.09;;;16.43;80.17
73341;BME280;61578;52.002;5.468;2022-07-24T04:05:12;101767.50;;;16.45;80.12
73341;BME280;61578;52.002;5.468;2022-07-24T04:06:05;101775.34;;;16.48;79.75
73341;BME280;61578;52.002;5.468;2022-07-24T04:06:57;101772.66;;;16.48;79.93
73341;BME280;61578;52.002;5.468;2022-07-24T04:07:48;101775.34;;;16.48;79.95
73341;BME280;61578;52.002;5.468;2022-07-24T04:08:39;101776.19;;;16.48;79.82
73341;BME280;61578;52.002;5.468;2022-07-24T04:09:30;101768.97;;;16.49;80.23
73341;BME280;61578;52.002;5.468;2022-07-24T04:10:21;101772.41;;;16.51;80.28
73341;BME280;61578;52.002;5.468;2022-07-24T04:11:12;101755.94;;;16.44;79.54
73341;BME280;61578;52.002;5.468;2022-07-24T04:12:03;101743.00;;;16.38;80.25
73341;BME280;61578;52.002;5.468;2022-07-24T04:12:55;101753.38;;;16.43;80.31
73341;BME280;61578;52.002;5.468;2022-07-24T04:13:46;101751.75;;;16.40;79.97
73341;BME280;61578;52.002;5.468;2022-07-24T04:14:37;101755.19;;;16.42;80.20
73341;BME280;61578;52.002;5.468;2022-07-24T04:15:28;101767.16;;;16.49;79.89
73341;BME280;61578;52.002;5.468;2022-07-24T04:16:19;101741.50;;;16.34;80.26
73341;BME280;61578;52.002;5.468;2022-07-24T04:17:10;101761.06;;;16.47;80.10
73341;BME280;61578;52.002;5.468;2022-07-24T04:18:01;101766.44;;;16.47;80.17
73341;BME280;61578;52.002;5.468;2022-07-24T04:18:52;101761.28;;;16.44;79.85
73341;BME280;61578;52.002;5.468;2022-07-24T04:19:43;101754.22;;;16.43;80.01
73341;BME280;61578;52.002;5.468;2022-07-24T04:20:35;101771.53;;;16.50;79.94
73341;BME280;61578;52.002;5.468;2022-07-24T04:21:26;101771.44;;;16.52;80.35
73341;BME280;61578;52.002;5.468;2022-07-24T04:22:16;101751.88;;;16.39;80.21
73341;BME280;61578;52.002;5.468;2022-07-24T04:23:08;101763.88;;;16.46;80.00
73341;BME280;61578;52.002;5.468;2022-07-24T04:23:59;101782.28;;;16.50;79.61
73341;BME280;61578;52.002;5.468;2022-07-24T04:24:50;101772.00;;;16.44;79.98
73341;BME280;61578;52.002;5.468;2022-07-24T04:25:41;101763.75;;;16.47;80.36
73341;BME280;61578;52.002;5.468;2022-07-24T04:26:32;101757.00;;;16.42;80.14
73341;BME280;61578;52.002;5.468;2022-07-24T04:27:23;101762.78;;;16.48;79.92
73341;BME280;61578;52.002;5.468;2022-07-24T04:28:14;101761.28;;;16.44;80.01